Time;durP1;ratioP1;P1;durP2;ratioP2;P2;SDS_P1;SDS_P2;PMS_P1;PMS_P2;Temp;Humidity;BMP_temperature;BMP_pressure;BME280_temperature;BME280_humidity;BME280_pressure;Samples;Min_cycle;Max_cycle;Signal;HPM_P1;HPM_P2
2022/11/01 00:00:15;;;;;;;;;;;;;;;14.14;75.13;101149.81;5431410;32;35124;-65
2022/11/01 00:03:17;;;;;;;;;;;;;;;14.12;74.96;101154.34;5413908;32;34620;-72
2022/11/01 00:06:18;;;;;;;;;;;;;;;14.49;73.17;101159.81;5429132;32;34792;-64
2022/11/01 00:09:20;;;;;;;;;;;;;;;13.83;75.33;101149.28;5411153;32;35384;-64
2022/11/01 00:12:22;;;;;;;;;;;;;;;14.15;75.00;101148.91;5425266;32;34311;-70
2022/11/01 00:15:24;;;;;;;;;;;;;;;14.34;73.96;101137.47;5411064;32;34683;-65
2022/11/01 00:18:26;;;;;;;;;;;;;;;14.48;73.48;101134.28;5436138;32;35189;-64
2022/11/01 00:21:27;;;;;;;;;;;;;;;14.61;72.26;101135.44;5444357;32;35144;-64
2022/11/01 00:24:32;;;;;;;;;;;;;;;14.23;73.21;101141.50;5423593;32;35258;-65
2022/11/01 00:27:34;;;;;;;;;;;;;;;14.32;73.74;101138.47;5431168;32;38310;-64
2022/11/01 00:30:36;;;;;;;;;;;;;;;14.47;72.97;101137.84;5415444;32;35379;-73
2022/11/01 00:33:38;;;;;;;;;;;;;;;13.88;76.04;101146.47;5433090;32;34963;-64
2022/11/01 00:36:40;;;;;;;;;;;;;;;12.82;80.75;101138.25;5426049;32;44508;-72
2022/11/01 00:39:42;;;;;;;;;;;;;;;14.16;74.80;101129.47;5397274;32;34312;-65
2022/11/01 00:42:44;;;;;;;;;;;;;;;14.27;74.30;101135.16;5429474;32;35056;-74
2022/11/01 00:45:45;;;;;;;;;;;;;;;14.26;73.51;101138.75;5419182;32;35000;-73
2022/11/01 00:48:48;;;;;;;;;;;;;;;13.84;76.36;101131.66;5445433;32;34958;-64
2022/11/01 00:51:51;;;;;;;;;;;;;;;14.05;75.92;101128.16;5415919;32;36224;-73
2022/11/01 00:54:52;;;;;;;;;;;;;;;14.06;75.79;101119.28;5439278;32;35523;-64
2022/11/01 00:57:54;;;;;;;;;;;;;;;13.60;76.58;101127.38;5414816;32;34757;-65
2022/11/01 01:00:56;;;;;;;;;;;;;;;14.22;74.97;101122.13;5415308;32;34184;-73
2022/11/01 01:03:58;;;;;;;;;;;;;;;14.25;73.86;101127.31;5424039;32;34991;-74
2022/11/01 01:07:00;;;;;;;;;;;;;;;13.93;74.88;101122.50;5405203;32;34103;-71
2022/11/01 01:10:02;;;;;;;;;;;;;;;13.55;76.23;101115.22;5429941;32;34712;-64
2022/11/01 01:13:04;;;;;;;;;;;;;;;14.47;73.69;101097.31;5401579;32;35228;-64
2022/11/01 01:16:07;;;;;;;;;;;;;;;14.18;74.99;101103.84;5430953;32;34509;-64
2022/11/01 01:19:09;;;;;;;;;;;;;;;14.09;74.96;101105.94;5423348;32;44932;-73
2022/11/01 01:22:11;;;;;;;;;;;;;;;14.18;74.75;101104.69;5413158;32;35294;-75
2022/11/01 01:25:13;;;;;;;;;;;;;;;13.66;75.76;101106.00;5419659;32;35619;-72
2022/11/01 01:28:14;;;;;;;;;;;;;;;14.08;74.49;101098.06;5421669;32;34857;-73
2022/11/01 01:31:16;;;;;;;;;;;;;;;13.61;77.14;101082.41;5449528;32;35503;-73
2022/11/01 01:34:18;;;;;;;;;;;;;;;14.19;74.36;101073.84;5429334;32;34695;-63
2022/11/01 01:37:20;;;;;;;;;;;;;;;14.13;74.57;101080.25;5445857;32;35188;-63
2022/11/01 01:40:22;;;;;;;;;;;;;;;12.95;80.30;101087.63;5422175;32;35556;-73
2022/11/01 01:43:28;;;;;;;;;;;;;;;14.16;75.40;101085.38;5435730;32;35955;-73
2022/11/01 01:46:29;;;;;;;;;;;;;;;14.45;73.58;101084.13;5434975;32;35655;-64
2022/11/01 01:49:31;;;;;;;;;;;;;;;13.52;77.58;101086.31;5430861;32;35358;-72
2022/11/01 01:52:43;;;;;;;;;;;;;;;14.20;74.91;101086.97;5449708;32;35273;-64
2022/11/01 01:56:02;;;;;;;;;;;;;;;14.35;73.70;101070.44;5432573;32;45869;-73
2022/11/01 01:59:04;;;;;;;;;;;;;;;12.87;79.61;101087.03;5405987;32;35411;-73
2022/11/01 02:02:06;;;;;;;;;;;;;;;13.78;77.11;101077.31;5418282;32;34284;-64
2022/11/01 02:05:15;;;;;;;;;;;;;;;13.80;76.77;101079.88;5426582;32;44968;-69
2022/11/01 02:08:25;;;;;;;;;;;;;;;13.75;77.66;101069.50;5433332;32;44774;-70
2022/11/01 02:11:27;;;;;;;;;;;;;;;13.48;77.67;101073.28;5430743;32;35365;-70
2022/11/01 02:14:29;;;;;;;;;;;;;;;13.63;78.07;101072.62;5439993;32;34860;-64
2022/11/01 02:17:42;;;;;;;;;;;;;;;14.29;74.25;101067.22;5418609;32;34985;-64
2022/11/01 02:21:03;;;;;;;;;;;;;;;14.41;73.47;101064.03;5400755;32;47044;-64
2022/11/01 02:24:14;;;;;;;;;;;;;;;13.87;75.51;101068.13;5438534;32;34569;-64
2022/11/01 02:27:16;;;;;;;;;;;;;;;14.22;74.42;101063.13;5410899;32;46648;-71
2022/11/01 02:30:18;;;;;;;;;;;;;;;13.99;75.93;101072.06;5434281;32;34428;-74
2022/11/01 02:33:27;;;;;;;;;;;;;;;13.96;75.24;101077.44;5419947;32;34664;-64
2022/11/01 02:36:35;;;;;;;;;;;;;;;14.42;73.75;101059.59;5430857;32;34066;-72
2022/11/01 02:39:38;;;;;;;;;;;;;;;14.30;74.02;101055.72;5441330;32;35508;-72
2022/11/01 02:42:43;;;;;;;;;;;;;;;14.22;74.06;101048.09;5404857;32;43936;-72
2022/11/01 02:45:46;;;;;;;;;;;;;;;14.09;74.38;101047.78;5434402;32;35685;-63
2022/11/01 02:48:48;;;;;;;;;;;;;;;14.12;75.45;101035.38;5399729;32;35199;-70
2022/11/01 02:51:50;;;;;;;;;;;;;;;14.12;73.57;101036.25;5436628;32;34922;-72
2022/11/01 02:54:56;;;;;;;;;;;;;;;14.02;74.88;101038.41;5410063;32;35211;-74
2022/11/01 02:58:24;;;;;;;;;;;;;;;14.11;73.56;101041.59;5402748;32;34128;-64
2022/11/01 03:01:26;;;;;;;;;;;;;;;14.17;72.75;101039.53;5446683;32;34987;-74
2022/11/01 03:04:29;;;;;;;;;;;;;;;14.25;71.29;101044.50;5409076;32;34088;-65
2022/11/01 03:07:30;;;;;;;;;;;;;;;14.00;72.71;101048.19;5434973;32;34194;-74
2022/11/01 03:10:52;;;;;;;;;;;;;;;14.24;71.92;101051.56;5434331;32;35337;-64
2022/11/01 03:14:12;;;;;;;;;;;;;;;14.06;72.86;101055.00;5419396;32;35408;-73
2022/11/01 03:17:14;;;;;;;;;;;;;;;14.21;72.02;101046.41;5420563;32;44437;-64
2022/11/01 03:20:48;;;;;;;;;;;;;;;13.89;72.76;101061.00;5414031;32;34509;-73
2022/11/01 03:24:00;;;;;;;;;;;;;;;13.99;71.94;101054.41;5427874;32;34711;-72
2022/11/01 03:27:05;;;;;;;;;;;;;;;13.64;73.63;101060.28;5410152;32;34109;-64
2022/11/01 03:30:08;;;;;;;;;;;;;;;13.62;73.59;101055.06;5420918;32;37039;-72
2022/11/01 03:33:11;;;;;;;;;;;;;;;13.61;73.93;101053.38;5428612;32;45360;-73
2022/11/01 03:36:14;;;;;;;;;;;;;;;13.37;75.41;101060.50;5421164;32;35093;-64
2022/11/01 03:39:19;;;;;;;;;;;;;;;13.90;73.63;101057.41;5437983;32;34407;-73
2022/11/01 03:42:21;;;;;;;;;;;;;;;13.92;73.62;101062.66;5406965;32;35003;-65
2022/11/01 03:45:23;;;;;;;;;;;;;;;13.67;74.30;101061.03;5424511;32;34858;-63
2022/11/01 03:48:25;;;;;;;;;;;;;;;14.17;72.22;101055.41;5415902;32;34629;-74
2022/11/01 03:51:27;;;;;;;;;;;;;;;14.12;72.22;101051.25;5427959;32;34745;-73
2022/11/01 03:54:29;;;;;;;;;;;;;;;13.92;72.64;101054.75;5416559;32;34014;-72
2022/11/01 03:57:31;;;;;;;;;;;;;;;13.87;73.00;101057.56;5427269;32;35116;-64
2022/11/01 04:00:35;;;;;;;;;;;;;;;13.53;74.73;101053.69;5429845;32;34201;-64
2022/11/01 04:03:37;;;;;;;;;;;;;;;13.79;74.81;101042.03;5419622;32;36540;-72
2022/11/01 04:06:39;;;;;;;;;;;;;;;13.90;73.97;101046.00;5408788;32;44613;-63
2022/11/01 04:09:41;;;;;;;;;;;;;;;14.02;73.22;101032.25;5435985;32;34133;-64
2022/11/01 04:12:43;;;;;;;;;;;;;;;13.83;75.15;101029.53;5413510;32;35247;-73
2022/11/01 04:22:26;;;;;;;;;;;;;;;13.40;76.10;101026.06;5425835;32;36217;-73
2022/11/01 04:25:28;;;;;;;;;;;;;;;13.75;74.32;101015.81;5428060;32;34954;-64
2022/11/01 04:28:30;;;;;;;;;;;;;;;13.68;74.20;101025.78;5422049;32;34478;-64
2022/11/01 04:31:33;;;;;;;;;;;;;;;13.20;76.08;101028.56;5442383;32;35418;-63
2022/11/01 04:34:41;;;;;;;;;;;;;;;13.27;76.72;101025.69;5422500;32;34284;-73
2022/11/01 04:37:43;;;;;;;;;;;;;;;13.61;74.75;101028.75;5436486;32;45083;-73
2022/11/01 04:40:44;;;;;;;;;;;;;;;13.70;73.66;101030.97;5428677;32;34749;-74
2022/11/01 04:43:46;;;;;;;;;;;;;;;13.94;72.44;101022.03;5429962;32;34321;-64
2022/11/01 04:46:48;;;;;;;;;;;;;;;13.78;72.67;101021.84;5431784;32;34295;-70
2022/11/01 04:49:50;;;;;;;;;;;;;;;13.72;73.50;101023.87;5414180;32;34656;-65
2022/11/01 04:52:52;;;;;;;;;;;;;;;13.72;72.92;101031.78;5432687;32;35626;-64
2022/11/01 04:55:54;;;;;;;;;;;;;;;13.61;73.71;101040.16;5420607;32;34650;-73
2022/11/01 04:58:56;;;;;;;;;;;;;;;13.58;73.70;101031.50;5430534;32;34655;-73
2022/11/01 05:01:57;;;;;;;;;;;;;;;13.71;73.43;101028.25;5426499;32;34981;-64
2022/11/01 05:04:59;;;;;;;;;;;;;;;13.62;73.47;101027.81;5426247;32;34911;-73
2022/11/01 05:08:02;;;;;;;;;;;;;;;13.61;74.25;101028.75;5417771;32;34511;-73
2022/11/01 05:11:04;;;;;;;;;;;;;;;13.84;73.46;101031.25;5420191;32;34317;-72
2022/11/01 05:14:07;;;;;;;;;;;;;;;13.65;73.89;101033.81;5442483;32;34105;-63
2022/11/01 05:17:08;;;;;;;;;;;;;;;13.52;74.84;101022.03;5430468;32;44606;-70
2022/11/01 05:20:10;;;;;;;;;;;;;;;13.65;74.40;101031.16;5427292;32;36616;-72
2022/11/01 05:23:12;;;;;;;;;;;;;;;13.10;77.32;101027.25;5434410;32;33757;-63
2022/11/01 05:26:14;;;;;;;;;;;;;;;13.34;76.19;101022.81;5389904;32;34806;-64
2022/11/01 05:29:16;;;;;;;;;;;;;;;13.31;75.47;101021.13;5434382;32;34976;-72
2022/11/01 05:32:34;;;;;;;;;;;;;;;13.56;75.24;101021.00;5433359;32;34097;-64
2022/11/01 05:35:36;;;;;;;;;;;;;;;13.48;75.32;101012.53;5431213;32;34837;-63
2022/11/01 05:38:38;;;;;;;;;;;;;;;13.44;75.61;101017.06;5415196;32;34852;-72
2022/11/01 05:41:40;;;;;;;;;;;;;;;13.52;75.16;101024.66;5433767;32;44623;-64
2022/11/01 05:44:41;;;;;;;;;;;;;;;13.53;75.16;101027.28;5419264;32;35482;-73
2022/11/01 05:47:43;;;;;;;;;;;;;;;13.55;74.94;101020.13;5414176;32;35136;-74
2022/11/01 05:50:45;;;;;;;;;;;;;;;13.29;76.07;101022.97;5419625;32;35042;-73
2022/11/01 05:53:48;;;;;;;;;;;;;;;13.00;77.34;101024.09;5424418;32;34575;-63
2022/11/01 05:56:50;;;;;;;;;;;;;;;13.37;76.88;101027.94;5435764;32;34681;-70
2022/11/01 05:59:52;;;;;;;;;;;;;;;13.26;75.71;101023.94;5422775;32;35455;-72
2022/11/01 06:02:55;;;;;;;;;;;;;;;13.62;74.58;101031.31;5410266;32;34426;-73
2022/11/01 06:05:57;;;;;;;;;;;;;;;12.60;77.73;101024.75;5437531;32;35019;-64
2022/11/01 06:08:59;;;;;;;;;;;;;;;13.35;76.03;101038.56;5428477;32;34012;-73
2022/11/01 06:12:01;;;;;;;;;;;;;;;13.72;72.99;101031.78;5435411;32;34265;-73
2022/11/01 06:15:03;;;;;;;;;;;;;;;13.47;74.01;101039.88;5421749;32;33991;-63
2022/11/01 06:18:05;;;;;;;;;;;;;;;13.58;72.67;101047.34;5451906;32;34024;-72
2022/11/01 06:21:07;;;;;;;;;;;;;;;13.50;73.00;101037.94;5415864;32;34767;-73
2022/11/01 06:24:09;;;;;;;;;;;;;;;13.23;74.79;101047.84;5422200;32;38444;-73
2022/11/01 06:27:11;;;;;;;;;;;;;;;13.39;73.75;101037.50;5408742;32;34605;-64
2022/11/01 06:30:13;;;;;;;;;;;;;;;13.36;73.82;101042.94;5414838;32;35882;-63
2022/11/01 06:33:15;;;;;;;;;;;;;;;13.13;74.39;101038.53;5437276;32;35019;-64
2022/11/01 06:36:17;;;;;;;;;;;;;;;13.38;72.71;101038.44;5425083;32;35335;-74
2022/11/01 06:39:19;;;;;;;;;;;;;;;12.87;74.01;101044.81;5420613;32;34656;-70
2022/11/01 06:42:21;;;;;;;;;;;;;;;12.92;76.62;101050.78;5406991;32;35027;-65
2022/11/01 06:45:22;;;;;;;;;;;;;;;13.63;72.56;101048.88;5415659;32;35126;-65
2022/11/01 06:48:24;;;;;;;;;;;;;;;13.43;72.80;101049.69;5449589;32;35319;-73
2022/11/01 06:51:26;;;;;;;;;;;;;;;13.50;72.33;101053.78;5410856;32;35024;-73
2022/11/01 06:54:28;;;;;;;;;;;;;;;13.30;73.39;101048.47;5417598;32;34163;-73
2022/11/01 06:57:30;;;;;;;;;;;;;;;13.44;73.05;101047.91;5426397;32;35182;-70
2022/11/01 07:00:32;;;;;;;;;;;;;;;13.12;74.55;101060.56;5442137;32;34013;-73
2022/11/01 07:03:33;;;;;;;;;;;;;;;13.28;74.02;101058.22;5433507;32;34677;-73
2022/11/01 07:06:35;;;;;;;;;;;;;;;13.48;73.76;101066.22;5429163;32;34143;-64
2022/11/01 07:09:37;;;;;;;;;;;;;;;13.84;71.89;101062.97;5439413;32;36120;-63
2022/11/01 07:12:39;;;;;;;;;;;;;;;13.55;73.32;101057.13;5423607;32;46253;-72
2022/11/01 07:15:41;;;;;;;;;;;;;;;13.62;72.92;101065.66;5441947;32;34874;-64
2022/11/01 07:18:43;;;;;;;;;;;;;;;13.59;73.51;101057.87;5428062;32;34879;-73
2022/11/01 07:21:45;;;;;;;;;;;;;;;13.39;73.88;101058.62;5433692;32;34526;-72
2022/11/01 07:24:47;;;;;;;;;;;;;;;13.69;73.80;101059.19;5413221;32;34640;-73
2022/11/01 07:27:49;;;;;;;;;;;;;;;13.66;74.12;101069.03;5397555;32;34669;-74
2022/11/01 07:30:51;;;;;;;;;;;;;;;13.64;73.71;101060.28;5445649;32;35003;-65
2022/11/01 07:33:53;;;;;;;;;;;;;;;13.86;72.36;101061.13;5426599;32;34807;-63
2022/11/01 07:36:55;;;;;;;;;;;;;;;13.15;75.80;101056.97;5429459;32;34584;-65
2022/11/01 07:39:56;;;;;;;;;;;;;;;13.58;73.90;101068.47;5415519;32;35349;-65
2022/11/01 07:42:59;;;;;;;;;;;;;;;13.78;71.08;101064.09;5446404;32;34195;-71
2022/11/01 07:46:03;;;;;;;;;;;;;;;13.64;71.59;101066.44;5407980;32;34889;-65
2022/11/01 07:49:04;;;;;;;;;;;;;;;13.50;72.33;101064.34;5419174;32;34364;-64
2022/11/01 07:52:06;;;;;;;;;;;;;;;13.55;71.77;101077.37;5433005;32;35039;-64
2022/11/01 07:55:08;;;;;;;;;;;;;;;13.48;71.79;101071.50;5418735;32;35450;-64
2022/11/01 07:58:10;;;;;;;;;;;;;;;13.21;73.16;101062.03;5447058;32;45351;-72
2022/11/01 08:01:12;;;;;;;;;;;;;;;13.56;71.89;101068.53;5426861;32;34960;-74
2022/11/01 08:04:14;;;;;;;;;;;;;;;13.65;71.39;101064.66;5438169;32;34660;-65
2022/11/01 08:07:16;;;;;;;;;;;;;;;13.47;72.24;101067.13;5431225;32;35788;-73
2022/11/01 08:10:18;;;;;;;;;;;;;;;13.76;70.86;101065.06;5426208;32;35340;-73
2022/11/01 08:13:23;;;;;;;;;;;;;;;13.81;70.99;101060.47;5450288;32;35401;-65
2022/11/01 08:16:25;;;;;;;;;;;;;;;13.82;71.30;101059.53;5412118;32;35756;-74
2022/11/01 08:19:27;;;;;;;;;;;;;;;13.87;70.56;101056.72;5438928;32;34391;-75
2022/11/01 08:22:29;;;;;;;;;;;;;;;13.75;70.76;101053.66;5423912;32;34090;-73
2022/11/01 08:25:31;;;;;;;;;;;;;;;14.02;70.26;101048.97;5415042;32;33945;-73
2022/11/01 08:28:33;;;;;;;;;;;;;;;14.07;69.49;101041.72;5417982;32;34840;-73
2022/11/01 08:31:38;;;;;;;;;;;;;;;14.07;69.60;101049.63;5431500;32;35255;-63
2022/11/01 08:34:40;;;;;;;;;;;;;;;14.02;69.62;101048.97;5434988;32;44840;-63
2022/11/01 08:37:51;;;;;;;;;;;;;;;13.51;70.98;101057.28;5424864;32;35134;-64
2022/11/01 08:40:53;;;;;;;;;;;;;;;13.83;71.19;101061.25;5439333;32;35118;-75
2022/11/01 08:43:58;;;;;;;;;;;;;;;13.28;73.87;101068.78;5426641;32;34817;-73
2022/11/01 08:47:00;;;;;;;;;;;;;;;13.19;73.46;101069.94;5424802;32;34517;-73
2022/11/01 08:50:02;;;;;;;;;;;;;;;13.43;72.50;101068.16;5436986;32;35146;-64
2022/11/01 08:53:10;;;;;;;;;;;;;;;12.59;77.42;101060.81;5432970;32;37343;-64
2022/11/01 08:56:12;;;;;;;;;;;;;;;13.70;72.33;101049.47;5444061;32;34760;-73
2022/11/01 08:59:14;;;;;;;;;;;;;;;12.95;76.30;101039.25;5419698;32;35127;-73
2022/11/01 09:02:16;;;;;;;;;;;;;;;13.68;71.71;101049.53;5449933;32;34183;-73
2022/11/01 09:05:18;;;;;;;;;;;;;;;14.09;70.68;101039.84;5416151;32;34800;-71
2022/11/01 09:08:20;;;;;;;;;;;;;;;13.28;72.98;101047.66;5418899;32;34052;-74
2022/11/01 09:11:22;;;;;;;;;;;;;;;13.37;73.39;101055.22;5446213;32;35066;-70
2022/11/01 09:14:25;;;;;;;;;;;;;;;13.33;74.50;101051.00;5371397;32;929308;-64
2022/11/01 09:17:26;;;;;;;;;;;;;;;13.48;72.76;101053.00;5443966;32;34506;-71
2022/11/01 09:20:28;;;;;;;;;;;;;;;13.04;74.21;101049.44;5411504;32;34133;-64
2022/11/01 09:23:30;;;;;;;;;;;;;;;12.54;75.39;101049.56;5444386;32;34073;-73
2022/11/01 09:26:32;;;;;;;;;;;;;;;13.37;73.37;101043.78;5389560;32;34606;-74
2022/11/01 09:29:34;;;;;;;;;;;;;;;14.06;70.93;101039.16;5414669;32;35020;-70
2022/11/01 09:32:36;;;;;;;;;;;;;;;14.26;68.53;101046.19;5436014;32;35363;-65
2022/11/01 09:35:38;;;;;;;;;;;;;;;14.21;69.82;101046.41;5408466;32;34790;-64
2022/11/01 09:38:39;;;;;;;;;;;;;;;14.08;70.33;101037.28;5439604;32;47982;-73
2022/11/01 09:41:46;;;;;;;;;;;;;;;13.04;74.30;101041.53;5425461;32;34785;-64
2022/11/01 09:44:48;;;;;;;;;;;;;;;14.08;70.59;101039.94;5434761;32;34688;-71
2022/11/01 09:47:51;;;;;;;;;;;;;;;14.04;69.93;101044.50;5416644;32;35011;-64
2022/11/01 09:50:53;;;;;;;;;;;;;;;13.60;72.09;101053.44;5413229;32;34274;-71
2022/11/01 09:53:55;;;;;;;;;;;;;;;14.35;69.65;101033.41;5415349;32;34352;-74
2022/11/01 09:57:13;;;;;;;;;;;;;;;13.81;71.13;101036.69;5416983;32;34046;-74
2022/11/01 10:00:15;;;;;;;;;;;;;;;14.30;69.66;101035.44;5429114;32;44760;-74
2022/11/01 10:03:35;;;;;;;;;;;;;;;14.74;67.81;101034.38;5410539;32;35514;-74
2022/11/01 10:06:45;;;;;;;;;;;;;;;14.38;68.34;101032.44;5422529;32;38217;-72
2022/11/01 10:09:55;;;;;;;;;;;;;;;14.18;69.91;101013.97;5420746;32;46758;-66
2022/11/01 10:13:09;;;;;;;;;;;;;;;14.35;69.98;101024.63;5430268;32;35190;-65
2022/11/01 10:16:30;;;;;;;;;;;;;;;14.28;69.94;101028.47;5426781;32;44638;-64
2022/11/01 10:19:34;;;;;;;;;;;;;;;14.72;68.23;101025.66;5424842;32;34596;-64
2022/11/01 10:22:36;;;;;;;;;;;;;;;14.75;67.07;101028.12;5424058;32;34793;-73
2022/11/01 10:25:37;;;;;;;;;;;;;;;14.35;69.21;101027.28;5413125;32;36373;-64
2022/11/01 10:28:42;;;;;;;;;;;;;;;14.42;69.06;101014.62;5411825;32;44525;-64
2022/11/01 10:31:44;;;;;;;;;;;;;;;14.94;67.19;101012.25;5452890;32;34793;-66
2022/11/01 10:34:46;;;;;;;;;;;;;;;14.50;68.26;101008.12;5431450;32;34968;-63
2022/11/01 10:37:53;;;;;;;;;;;;;;;13.53;72.86;101022.00;5442206;32;34822;-65
2022/11/01 10:41:17;;;;;;;;;;;;;;;14.35;70.47;101012.25;5433686;32;45591;-74
2022/11/01 10:44:29;;;;;;;;;;;;;;;13.63;72.84;101014.53;5399730;32;34856;-74
2022/11/01 10:47:31;;;;;;;;;;;;;;;13.82;73.31;101022.53;5419023;32;35187;-74
2022/11/01 10:50:33;;;;;;;;;;;;;;;14.82;68.34;101008.44;5403233;32;34221;-64
2022/11/01 10:53:43;;;;;;;;;;;;;;;14.88;67.05;101005.50;5449111;32;34418;-64
2022/11/01 10:56:46;;;;;;;;;;;;;;;13.90;72.44;101014.28;5428407;32;44561;-73
2022/11/01 10:59:47;;;;;;;;;;;;;;;14.54;68.30;101003.53;5419177;32;35498;-65
2022/11/01 11:02:50;;;;;;;;;;;;;;;14.74;68.15;101002.63;5451821;32;34219;-65
2022/11/01 11:05:52;;;;;;;;;;;;;;;15.15;66.04;101004.19;5424066;32;34901;-74
2022/11/01 11:08:54;;;;;;;;;;;;;;;14.73;66.82;101001.75;5430811;32;35065;-74
2022/11/01 11:11:57;;;;;;;;;;;;;;;14.40;68.97;101003.28;5404696;32;34773;-65
2022/11/01 11:15:03;;;;;;;;;;;;;;;15.04;67.30;101003.81;5413000;32;35670;-74
2022/11/01 11:18:07;;;;;;;;;;;;;;;14.69;69.00;101002.00;5435192;32;35108;-74
2022/11/01 11:21:10;;;;;;;;;;;;;;;14.91;67.96;100997.41;5401006;32;44588;-66
2022/11/01 11:24:19;;;;;;;;;;;;;;;14.89;67.72;100993.97;5423580;32;35047;-74
2022/11/01 11:27:22;;;;;;;;;;;;;;;14.94;67.28;100993.75;5378829;32;35484;-65
2022/11/01 11:30:28;;;;;;;;;;;;;;;15.34;65.72;100992.69;5415861;32;34767;-64
2022/11/01 11:33:30;;;;;;;;;;;;;;;14.80;67.73;100982.00;5411861;32;35490;-73
2022/11/01 11:36:33;;;;;;;;;;;;;;;13.90;71.43;100986.06;5427108;32;34755;-74
2022/11/01 11:39:35;;;;;;;;;;;;;;;14.48;69.94;100969.44;5429777;32;35603;-65
2022/11/01 11:42:37;;;;;;;;;;;;;;;14.79;68.01;100974.16;5416756;32;36176;-64
2022/11/01 11:45:39;;;;;;;;;;;;;;;14.86;67.82;100970.28;5436568;32;45090;-72
2022/11/01 11:48:48;;;;;;;;;;;;;;;14.46;69.36;100965.97;5432842;32;34293;-74
2022/11/01 11:51:50;;;;;;;;;;;;;;;13.88;73.03;100980.00;5449505;32;35356;-64
2022/11/01 11:54:52;;;;;;;;;;;;;;;13.99;72.86;100982.19;5425645;32;34201;-71
2022/11/01 11:57:54;;;;;;;;;;;;;;;14.54;70.05;100975.28;5436941;32;35362;-64
2022/11/01 12:01:00;;;;;;;;;;;;;;;15.03;67.74;100978.28;5428430;32;34324;-65
2022/11/01 12:04:06;;;;;;;;;;;;;;;14.42;70.21;100972.31;5411957;32;34755;-72
2022/11/01 12:07:21;;;;;;;;;;;;;;;14.75;68.27;100967.28;5427525;32;35295;-64
2022/11/01 12:10:26;;;;;;;;;;;;;;;14.29;70.00;100967.59;5408860;32;34918;-73
2022/11/01 12:13:32;;;;;;;;;;;;;;;14.72;69.33;100970.09;5443343;32;35181;-64
2022/11/01 12:16:43;;;;;;;;;;;;;;;15.13;65.77;100953.09;5435958;32;34183;-74
2022/11/01 12:19:45;;;;;;;;;;;;;;;15.43;64.66;100960.44;5418933;32;44556;-74
2022/11/01 12:22:55;;;;;;;;;;;;;;;14.50;68.73;100952.59;5435116;32;34857;-63
2022/11/01 12:25:57;;;;;;;;;;;;;;;14.92;66.83;100959.41;5401514;32;34889;-74
2022/11/01 12:29:02;;;;;;;;;;;;;;;13.87;70.53;100951.87;5424388;32;35734;-73
2022/11/01 12:32:15;;;;;;;;;;;;;;;14.68;68.94;100947.34;5436472;32;34721;-65
2022/11/01 12:35:25;;;;;;;;;;;;;;;14.47;69.88;100951.84;5420502;32;46728;-74
2022/11/01 12:38:42;;;;;;;;;;;;;;;14.56;68.73;100947.00;5412592;32;34343;-74
2022/11/01 12:41:46;;;;;;;;;;;;;;;14.48;68.78;100937.69;5429648;32;44474;-67
2022/11/01 12:44:50;;;;;;;;;;;;;;;14.51;69.17;100929.63;5416357;32;34731;-73
2022/11/01 12:47:53;;;;;;;;;;;;;;;14.90;68.58;100933.03;5401342;32;35433;-65
2022/11/01 12:50:58;;;;;;;;;;;;;;;15.49;65.68;100927.50;5402307;32;34540;-64
2022/11/01 12:54:04;;;;;;;;;;;;;;;14.63;68.82;100923.78;5425018;32;34770;-74
2022/11/01 12:57:17;;;;;;;;;;;;;;;14.51;68.37;100921.69;5413701;32;34295;-73
2022/11/01 13:00:20;;;;;;;;;;;;;;;14.54;68.69;100914.47;5426003;32;36507;-75
2022/11/01 13:03:28;;;;;;;;;;;;;;;14.57;67.30;100916.97;5431534;32;34809;-65
2022/11/01 13:06:45;;;;;;;;;;;;;;;15.65;62.66;100908.13;5440719;32;34645;-64
2022/11/01 13:09:54;;;;;;;;;;;;;;;15.80;61.98;100917.06;5439159;32;43431;-73
2022/11/01 13:13:02;;;;;;;;;;;;;;;16.09;60.59;100920.81;5399734;32;35473;-74
2022/11/01 13:16:10;;;;;;;;;;;;;;;16.04;60.26;100909.59;5431970;32;35204;-64
2022/11/01 13:19:22;;;;;;;;;;;;;;;14.44;65.89;100922.88;5418414;32;44925;-64
2022/11/01 13:22:31;;;;;;;;;;;;;;;14.90;65.18;100918.94;5441844;32;34740;-73
2022/11/01 13:25:33;;;;;;;;;;;;;;;15.39;63.91;100922.66;5417707;32;34000;-72
2022/11/01 13:28:41;;;;;;;;;;;;;;;14.81;65.30;100914.97;5420630;32;34685;-73
2022/11/01 13:31:43;;;;;;;;;;;;;;;15.53;63.30;100913.16;5448221;32;44636;-73
2022/11/01 13:34:48;;;;;;;;;;;;;;;15.50;62.77;100897.41;5422826;32;35405;-64
2022/11/01 13:38:10;;;;;;;;;;;;;;;15.34;62.15;100902.66;5443404;32;34620;-74
2022/11/01 13:41:21;;;;;;;;;;;;;;;15.86;61.59;100892.88;5427485;32;43783;-73
2022/11/01 13:44:24;;;;;;;;;;;;;;;15.70;61.92;100903.41;5398290;32;35432;-74
2022/11/01 13:47:34;;;;;;;;;;;;;;;16.00;60.91;100899.25;5429656;32;34701;-64
2022/11/01 13:50:42;;;;;;;;;;;;;;;15.82;61.58;100890.47;5414001;32;34470;-71
2022/11/01 13:53:45;;;;;;;;;;;;;;;15.62;62.06;100897.66;5443483;32;46778;-65
2022/11/01 13:57:05;;;;;;;;;;;;;;;15.32;64.10;100899.19;5404365;32;34670;-65
2022/11/01 14:00:27;;;;;;;;;;;;;;;15.58;63.43;100900.50;5416057;32;36521;-64
2022/11/01 14:03:31;;;;;;;;;;;;;;;15.32;64.58;100904.50;5441259;32;34231;-73
2022/11/01 14:06:36;;;;;;;;;;;;;;;15.26;64.47;100899.50;5413964;32;34092;-74
2022/11/01 14:09:48;;;;;;;;;;;;;;;14.69;67.04;100904.09;5413832;32;34322;-73
2022/11/01 14:12:55;;;;;;;;;;;;;;;15.05;66.69;100896.12;5416379;32;35692;-74
2022/11/01 14:15:58;;;;;;;;;;;;;;;15.50;64.66;100890.31;5416204;32;35367;-64
2022/11/01 14:19:01;;;;;;;;;;;;;;;15.04;65.70;100897.94;5435344;32;34187;-73
2022/11/01 14:22:10;;;;;;;;;;;;;;;15.17;64.61;100899.03;5432773;32;34868;-63
2022/11/01 14:25:12;;;;;;;;;;;;;;;14.66;67.22;100894.50;5417455;32;46991;-64
2022/11/01 14:28:17;;;;;;;;;;;;;;;15.53;63.29;100894.63;5410187;32;34235;-64
2022/11/01 14:31:21;;;;;;;;;;;;;;;15.67;62.39;100895.63;5437412;32;34786;-64
2022/11/01 14:34:24;;;;;;;;;;;;;;;14.58;66.65;100902.81;5411049;32;35252;-73
2022/11/01 14:37:27;;;;;;;;;;;;;;;15.65;62.42;100899.31;5409813;32;35096;-64
2022/11/01 14:40:31;;;;;;;;;;;;;;;14.88;65.12;100904.94;5415804;32;34253;-66
2022/11/01 14:43:47;;;;;;;;;;;;;;;14.86;65.94;100901.47;5398181;32;35115;-63
2022/11/01 14:46:48;;;;;;;;;;;;;;;13.85;68.94;100900.00;5442290;32;44659;-64
2022/11/01 14:49:51;;;;;;;;;;;;;;;15.64;62.63;100889.62;5403582;32;34727;-74
2022/11/01 14:53:12;;;;;;;;;;;;;;;15.44;63.11;100886.19;5399089;32;35529;-74
2022/11/01 14:56:21;;;;;;;;;;;;;;;14.58;65.81;100894.87;5419420;32;44524;-64
2022/11/01 14:59:27;;;;;;;;;;;;;;;15.26;64.19;100899.50;5403240;32;34735;-74
2022/11/01 15:02:29;;;;;;;;;;;;;;;14.99;64.84;100901.75;5415475;32;34248;-66
2022/11/01 15:05:31;;;;;;;;;;;;;;;14.38;68.03;100902.88;5406324;32;35284;-73
2022/11/01 15:08:38;;;;;;;;;;;;;;;15.00;65.88;100900.81;5435542;32;34109;-75
2022/11/01 15:11:40;;;;;;;;;;;;;;;15.55;63.74;100903.34;5427854;32;43441;-74
2022/11/01 15:14:43;;;;;;;;;;;;;;;15.63;63.45;100914.41;5424460;32;35347;-76
2022/11/01 15:17:55;;;;;;;;;;;;;;;14.64;67.51;100917.53;5444754;32;35350;-65
2022/11/01 15:20:57;;;;;;;;;;;;;;;14.92;66.61;100921.50;5406428;32;34459;-74
2022/11/01 15:24:00;;;;;;;;;;;;;;;14.52;68.29;100921.63;5435727;32;35506;-64
2022/11/01 15:27:04;;;;;;;;;;;;;;;14.23;69.25;100922.06;5395084;32;34884;-74
2022/11/01 15:30:06;;;;;;;;;;;;;;;14.60;67.77;100922.09;5407215;32;34358;-63
2022/11/01 15:33:12;;;;;;;;;;;;;;;14.36;68.55;100926.75;5430553;32;34176;-75
2022/11/01 15:36:18;;;;;;;;;;;;;;;14.78;67.62;100924.81;5391996;32;45618;-64
2022/11/01 15:39:23;;;;;;;;;;;;;;;14.66;66.95;100923.59;5439348;32;35232;-74
2022/11/01 15:42:32;;;;;;;;;;;;;;;14.86;66.78;100926.16;5400716;32;34902;-76
2022/11/01 15:45:34;;;;;;;;;;;;;;;13.99;70.31;100913.47;5409432;32;34112;-67
2022/11/01 15:48:36;;;;;;;;;;;;;;;13.97;70.22;100920.59;5407552;32;34775;-73
2022/11/01 15:51:44;;;;;;;;;;;;;;;14.53;67.93;100915.41;5430312;32;35350;-73